Time;durP1;ratioP1;P1;durP2;ratioP2;P2;SDS_P1;SDS_P2;PMS_P1;PMS_P2;Temp;Humidity;BMP_temperature;BMP_pressure;BME280_temperature;BME280_humidity;BME280_pressure;Samples;Min_cycle;Max_cycle;Signal;HPM_P1;HPM_P2
2023/11/22 00:01:12;;;;;;;41.50;22.67;;;205.30;2252.80;;;;;;5059918;28;20029;-68
2023/11/22 00:03:38;;;;;;;43.53;23.30;;;205.30;2252.80;;;;;;5063760;28;20058;-65
2023/11/22 00:06:03;;;;;;;38.33;23.45;;;205.30;2252.80;;;;;;5062562;28;20060;-68
2023/11/22 00:08:29;;;;;;;43.22;23.98;;;205.30;2252.80;;;;;;5061302;28;20021;-63
2023/11/22 00:10:55;;;;;;;39.25;22.92;;;205.30;2252.80;;;;;;5059151;28;20025;-65
2023/11/22 00:13:22;;;;;;;42.30;23.25;;;205.20;2252.80;;;;;;5061365;28;20054;-67
2023/11/22 00:15:50;;;;;;;42.75;23.63;;;205.30;2252.80;;;;;;5049141;28;20033;-65
2023/11/22 00:18:16;;;;;;;42.75;23.50;;;205.20;2252.80;;;;;;5055422;28;20028;-66
2023/11/22 00:20:41;;;;;;;41.55;23.33;;;205.30;2252.80;;;;;;5054358;28;20025;-64
2023/11/22 00:23:08;;;;;;;47.85;24.92;;;205.30;2252.80;;;;;;5054605;28;20495;-65
2023/11/22 00:25:33;;;;;;;45.42;23.80;;;205.20;2252.80;;;;;;5054183;28;20175;-65
2023/11/22 00:27:59;;;;;;;46.45;23.90;;;205.20;2252.80;;;;;;5054649;28;20091;-63
2023/11/22 00:30:25;;;;;;;46.20;25.17;;;205.20;2252.80;;;;;;5054597;28;20132;-65
2023/11/22 00:32:53;;;;;;;44.03;25.10;;;205.20;2252.80;;;;;;5038927;28;20745;-68
2023/11/22 00:35:19;;;;;;;44.80;24.83;;;205.20;2252.80;;;;;;5052071;28;20017;-68
2023/11/22 00:37:46;;;;;;;43.72;23.75;;;205.20;2252.80;;;;;;5053663;28;20048;-65
2023/11/22 00:40:12;;;;;;;47.75;24.58;;;205.20;2252.80;;;;;;5054696;28;20044;-66
2023/11/22 00:42:40;;;;;;;46.30;24.75;;;205.20;2252.80;;;;;;5054071;28;20082;-63
2023/11/22 00:45:06;;;;;;;45.78;25.33;;;205.20;2252.80;;;;;;5053707;28;20056;-65
2023/11/22 00:47:32;;;;;;;45.65;24.70;;;205.30;2252.80;;;;;;5052358;28;20135;-65
2023/11/22 00:49:58;;;;;;;46.05;25.08;;;205.20;2252.80;;;;;;5044789;28;20022;-66
2023/11/22 00:52:24;;;;;;;46.90;25.80;;;205.30;2252.80;;;;;;5043148;28;20028;-66
2023/11/22 00:54:50;;;;;;;46.25;24.83;;;205.20;2252.80;;;;;;5054276;28;20056;-66
2023/11/22 00:57:16;;;;;;;45.00;25.38;;;205.20;2252.80;;;;;;5053073;28;20467;-66
2023/11/22 00:59:43;;;;;;;48.35;26.23;;;205.20;2252.80;;;;;;5052672;28;20051;-67
2023/11/22 01:02:09;;;;;;;44.75;25.65;;;205.20;2252.80;;;;;;5054591;28;20029;-66
2023/11/22 01:04:36;;;;;;;43.53;25.35;;;205.20;2252.80;;;;;;5053616;28;20021;-66
2023/11/22 01:07:12;;;;;;;50.35;25.98;;;205.20;2252.80;;;;;;5049233;28;20026;-63
2023/11/22 01:09:37;;;;;;;45.65;25.90;;;205.20;2252.80;;;;;;5041288;28;20060;-65
2023/11/22 01:12:04;;;;;;;47.95;26.10;;;205.20;2252.80;;;;;;5043823;28;20723;-65
2023/11/22 01:14:29;;;;;;;45.08;25.55;;;205.20;2252.80;;;;;;5052832;28;20031;-65
2023/11/22 01:16:55;;;;;;;50.75;27.23;;;205.20;2252.80;;;;;;5035414;28;20021;-67
2023/11/22 01:19:21;;;;;;;46.75;26.70;;;205.20;2252.80;;;;;;5054211;28;20044;-65
2023/11/22 01:21:47;;;;;;;50.13;26.85;;;205.20;2252.80;;;;;;5054132;28;20392;-65
2023/11/22 01:24:13;;;;;;;47.42;26.73;;;205.10;2252.80;;;;;;5053766;28;20048;-65
2023/11/22 01:26:39;;;;;;;47.70;26.98;;;205.20;2252.80;;;;;;5053045;28;20028;-65
2023/11/22 01:29:05;;;;;;;49.67;27.42;;;205.10;2252.80;;;;;;5053176;28;20450;-66
2023/11/22 01:31:32;;;;;;;48.38;27.83;;;205.10;2252.80;;;;;;5054154;28;20376;-66
2023/11/22 01:33:58;;;;;;;52.00;27.98;;;205.20;2252.80;;;;;;5036217;28;20022;-66
2023/11/22 01:36:25;;;;;;;49.13;27.58;;;205.10;2252.80;;;;;;5051900;28;20033;-64
2023/11/22 01:38:52;;;;;;;51.20;27.33;;;205.10;2252.80;;;;;;5053560;28;20035;-66
2023/11/22 01:41:19;;;;;;;52.33;28.35;;;205.10;2252.80;;;;;;5053204;28;20028;-64
2023/11/22 01:43:46;;;;;;;51.58;28.65;;;205.10;2252.80;;;;;;5053542;28;20376;-66
2023/11/22 01:46:23;;;;;;;51.42;29.00;;;205.10;2252.80;;;;;;5052646;28;20106;-67
2023/11/22 01:48:50;;;;;;;51.10;28.77;;;205.10;2252.80;;;;;;5033329;28;20031;-67
2023/11/22 01:51:15;;;;;;;51.42;28.83;;;205.10;2252.80;;;;;;5032439;28;20030;-67
2023/11/22 01:53:42;;;;;;;53.40;28.25;;;205.10;2252.80;;;;;;5047421;28;20548;-66
2023/11/22 01:56:09;;;;;;;52.35;28.38;;;205.10;2252.80;;;;;;5053209;28;20510;-66
2023/11/22 01:58:35;;;;;;;53.70;28.58;;;205.10;2252.80;;;;;;5052490;28;20437;-66
2023/11/22 02:01:03;;;;;;;54.05;29.38;;;205.10;2252.80;;;;;;5052995;28;20130;-66
2023/11/22 02:03:30;;;;;;;53.90;29.77;;;205.10;2252.80;;;;;;5053439;28;20064;-66
2023/11/22 02:05:55;;;;;;;57.42;30.58;;;205.10;2252.80;;;;;;5053624;28;20029;-66
2023/11/22 02:08:21;;;;;;;59.40;30.70;;;205.10;2252.80;;;;;;5052260;28;20025;-66
2023/11/22 02:10:57;;;;;;;58.72;30.40;;;205.10;2252.80;;;;;;5037510;28;20087;-65
2023/11/22 02:13:23;;;;;;;58.47;30.67;;;205.10;2252.80;;;;;;5037246;28;20021;-65
2023/11/22 02:15:49;;;;;;;60.63;30.80;;;205.10;2252.80;;;;;;5036172;28;20033;-65
2023/11/22 02:18:15;;;;;;;59.78;30.77;;;205.00;2252.80;;;;;;5047270;28;20060;-65
2023/11/22 02:20:41;;;;;;;54.42;30.77;;;205.00;2252.80;;;;;;5057693;28;20033;-66
2023/11/22 02:23:11;;;;;;;57.75;30.40;;;205.00;2252.80;;;;;;5057677;28;20079;-66
2023/11/22 02:25:37;;;;;;;59.17;31.23;;;205.10;2252.80;;;;;;5056747;28;20502;-66
2023/11/22 02:28:08;;;;;;;61.47;30.73;;;205.10;2252.80;;;;;;5056329;28;20060;-66
2023/11/22 02:30:34;;;;;;;55.15;29.40;;;205.00;2252.80;;;;;;5056289;28;20357;-65
2023/11/22 02:33:00;;;;;;;60.53;29.17;;;205.00;2252.80;;;;;;5057257;28;20529;-66
2023/11/22 02:35:26;;;;;;;59.33;31.70;;;205.00;2252.80;;;;;;5038069;28;20033;-64
2023/11/22 02:37:53;;;;;;;58.83;31.10;;;204.90;2252.80;;;;;;5057181;28;20040;-66
2023/11/22 02:40:20;;;;;;;59.58;30.77;;;205.00;2252.80;;;;;;5055869;28;20090;-65
2023/11/22 02:42:47;;;;;;;58.45;30.25;;;205.00;2252.80;;;;;;5056755;28;20021;-65
2023/11/22 02:45:14;;;;;;;57.33;30.95;;;205.00;2252.80;;;;;;5056126;28;20037;-65
2023/11/22 02:47:40;;;;;;;59.40;31.35;;;205.00;2252.80;;;;;;5056913;28;20024;-66
2023/11/22 02:50:09;;;;;;;54.10;30.67;;;205.00;2252.80;;;;;;5056941;28;20063;-64
2023/11/22 02:52:35;;;;;;;57.63;30.40;;;204.90;2252.80;;;;;;5037325;28;20021;-66
2023/11/22 02:55:00;;;;;;;56.33;30.73;;;205.00;2252.80;;;;;;5055891;28;20053;-66
2023/11/22 02:57:26;;;;;;;57.72;30.52;;;204.90;2252.80;;;;;;5057001;28;20413;-67
2023/11/22 02:59:52;;;;;;;54.78;30.60;;;204.90;2252.80;;;;;;5055754;28;20887;-65
2023/11/22 03:02:18;;;;;;;60.22;31.75;;;204.90;2252.80;;;;;;5056231;28;20025;-66
2023/11/22 03:04:44;;;;;;;59.85;32.10;;;204.90;2252.80;;;;;;5055420;28;20025;-64
2023/11/22 03:07:10;;;;;;;60.08;30.88;;;204.90;2252.80;;;;;;5055800;28;20025;-64
2023/11/22 03:09:36;;;;;;;55.78;31.48;;;204.90;2252.80;;;;;;5046248;28;20036;-66
2023/11/22 03:12:02;;;;;;;61.20;32.00;;;205.00;2252.80;;;;;;5050099;28;20486;-67
2023/11/22 03:14:29;;;;;;;61.75;31.73;;;205.00;2252.80;;;;;;5055791;28;20025;-66
2023/11/22 03:16:55;;;;;;;60.55;33.08;;;205.00;2252.80;;;;;;5051730;28;20032;-67
2023/11/22 03:19:21;;;;;;;61.78;32.75;;;205.00;2252.80;;;;;;5042154;28;20422;-73
2023/11/22 03:21:46;;;;;;;64.50;33.38;;;205.00;2252.80;;;;;;5054417;28;20108;-64
2023/11/22 03:24:12;;;;;;;67.18;34.38;;;205.00;2252.80;;;;;;5055028;28;20180;-66
2023/11/22 03:26:39;;;;;;;62.60;34.13;;;205.00;2252.80;;;;;;5055699;28;20029;-65
2023/11/22 03:29:05;;;;;;;59.67;32.35;;;205.00;2252.80;;;;;;5055284;28;20021;-65
2023/11/22 03:31:30;;;;;;;61.03;32.90;;;204.90;2252.80;;;;;;5055996;28;20096;-66
2023/11/22 03:33:57;;;;;;;58.88;33.15;;;204.90;2252.80;;;;;;5055185;28;20083;-65
2023/11/22 03:36:23;;;;;;;63.90;33.35;;;204.90;2252.80;;;;;;5036706;28;20029;-67
2023/11/22 03:38:49;;;;;;;65.85;35.55;;;204.90;2252.80;;;;;;5055902;28;20479;-65
2023/11/22 03:41:17;;;;;;;64.93;34.55;;;204.90;2252.80;;;;;;5055560;28;20025;-67
2023/11/22 03:43:43;;;;;;;66.93;35.17;;;204.90;2252.80;;;;;;5054570;28;20037;-71
2023/11/22 03:46:11;;;;;;;64.13;34.28;;;204.90;2252.80;;;;;;5055359;28;20045;-65
2023/11/22 03:48:37;;;;;;;64.00;34.53;;;204.90;2252.80;;;;;;5055524;28;20032;-64
2023/11/22 03:51:03;;;;;;;70.13;36.15;;;204.90;2252.80;;;;;;5055958;28;20037;-66
2023/11/22 03:53:28;;;;;;;67.65;34.80;;;204.90;2252.80;;;;;;5042629;28;20021;-64
2023/11/22 03:55:54;;;;;;;70.82;35.45;;;204.90;2252.80;;;;;;5052337;28;20371;-66
2023/11/22 03:58:20;;;;;;;66.20;34.13;;;204.90;2252.80;;;;;;5055487;28;20100;-67
2023/11/22 04:00:46;;;;;;;65.75;34.63;;;204.90;2252.80;;;;;;5055216;28;20175;-69
2023/11/22 04:03:12;;;;;;;67.35;34.97;;;204.80;2252.80;;;;;;5054879;28;20036;-64
2023/11/22 04:05:38;;;;;;;67.70;34.75;;;204.80;2252.80;;;;;;5055060;28;20036;-67
2023/11/22 04:08:04;;;;;;;65.38;34.55;;;204.80;2252.80;;;;;;5055808;28;20388;-67
2023/11/22 04:10:30;;;;;;;67.13;34.75;;;204.80;2252.80;;;;;;5055372;28;20025;-65
2023/11/22 04:12:56;;;;;;;66.80;34.72;;;204.80;2252.80;;;;;;5045896;28;20582;-66
2023/11/22 04:15:22;;;;;;;71.63;34.63;;;204.80;2252.80;;;;;;5053916;28;20093;-66
2023/11/22 04:17:48;;;;;;;69.22;34.70;;;204.80;2252.80;;;;;;5052185;28;20083;-67
2023/11/22 04:20:14;;;;;;;69.32;35.38;;;204.80;2252.80;;;;;;5039724;28;20033;-66
2023/11/22 04:22:41;;;;;;;69.25;35.72;;;204.80;2252.80;;;;;;5055030;28;20108;-66
2023/11/22 04:25:08;;;;;;;69.35;34.38;;;204.80;2252.80;;;;;;5054239;28;20033;-66
2023/11/22 04:27:34;;;;;;;61.75;32.70;;;180.10;2252.80;;;;;;5055264;28;20028;-66
2023/11/22 04:30:00;;;;;;;62.60;32.03;;;204.80;2252.80;;;;;;5054914;28;20028;-64
2023/11/22 04:32:26;;;;;;;61.13;32.13;;;180.10;2252.80;;;;;;5054304;28;20044;-68
2023/11/22 04:34:52;;;;;;;63.33;33.97;;;180.10;2252.80;;;;;;5051860;28;20396;-66
2023/11/22 04:37:17;;;;;;;65.47;30.45;;;180.10;2252.80;;;;;;5035524;28;20034;-66
2023/11/22 04:39:43;;;;;;;61.42;31.38;;;180.10;2252.80;;;;;;5055271;28;20029;-65
2023/11/22 04:42:09;;;;;;;59.53;30.25;;;180.10;2252.80;;;;;;5054525;28;20021;-65
2023/11/22 04:44:35;;;;;;;65.85;31.65;;;180.10;2252.80;;;;;;5053716;28;20041;-65
2023/11/22 04:47:00;;;;;;;60.35;30.30;;;180.10;2252.80;;;;;;5054703;28;20040;-66
2023/11/22 04:49:26;;;;;;;58.92;29.02;;;180.10;2252.80;;;;;;5054481;28;20032;-67
2023/11/22 04:51:52;;;;;;;56.92;28.52;;;180.10;2252.80;;;;;;5054496;28;20024;-67
2023/11/22 04:54:18;;;;;;;61.45;30.23;;;180.10;2252.80;;;;;;5042372;28;20081;-66
2023/11/22 04:56:44;;;;;;;57.70;27.92;;;180.00;2252.80;;;;;;5048458;28;20083;-65
2023/11/22 04:59:10;;;;;;;61.03;28.25;;;180.00;2252.80;;;;;;5053976;28;20120;-66
2023/11/22 05:01:36;;;;;;;61.00;27.95;;;180.00;2252.80;;;;;;5053163;28;20036;-65
2023/11/22 05:04:01;;;;;;;62.88;27.50;;;180.10;2252.80;;;;;;5054298;28;20029;-66
2023/11/22 05:06:29;;;;;;;63.20;27.98;;;180.00;2252.80;;;;;;5054065;28;20036;-66
2023/11/22 05:08:57;;;;;;;61.28;29.45;;;180.00;2252.80;;;;;;5053169;28;20025;-67
2023/11/22 05:11:23;;;;;;;64.80;29.25;;;179.90;2252.80;;;;;;5051278;28;20510;-64
2023/11/22 05:13:50;;;;;;;64.32;27.83;;;179.90;2252.80;;;;;;5052988;28;20044;-66
2023/11/22 05:16:18;;;;;;;64.70;28.27;;;179.90;2252.80;;;;;;5053694;28;20399;-65
2023/11/22 05:18:44;;;;;;;62.72;27.63;;;179.90;2252.80;;;;;;5050665;28;20043;-65
2023/11/22 05:21:09;;;;;;;64.18;28.85;;;179.90;2252.80;;;;;;5034151;28;20021;-66
2023/11/22 05:23:37;;;;;;;64.05;28.38;;;179.90;2252.80;;;;;;5040706;28;20041;-66
2023/11/22 05:26:06;;;;;;;68.85;29.27;;;179.90;2252.80;;;;;;5053859;28;20047;-64
2023/11/22 05:28:31;;;;;;;75.55;30.52;;;179.90;2252.80;;;;;;5053018;28;20029;-66
2023/11/22 05:30:57;;;;;;;69.32;28.35;;;179.90;2252.80;;;;;;5053794;28;20104;-64
2023/11/22 05:33:23;;;;;;;67.88;27.83;;;179.80;2252.80;;;;;;5053869;28;20025;-65
2023/11/22 05:35:49;;;;;;;69.32;27.67;;;179.80;2252.80;;;;;;5053487;28;20029;-65
2023/11/22 05:38:16;;;;;;;72.22;27.77;;;179.80;2252.80;;;;;;5050703;28;20044;-66
2023/11/22 05:40:42;;;;;;;66.15;26.95;;;179.80;2252.80;;;;;;5054566;28;20028;-66
2023/11/22 05:43:09;;;;;;;67.38;27.15;;;179.70;2252.80;;;;;;5052753;28;20033;-66
2023/11/22 05:45:35;;;;;;;69.38;27.77;;;179.70;2252.80;;;;;;5053156;28;20029;-67
2023/11/22 05:48:01;;;;;;;66.38;26.58;;;179.70;2252.80;;;;;;5052865;28;20040;-66
2023/11/22 05:50:27;;;;;;;68.85;27.13;;;179.70;2252.80;;;;;;5052893;28;20036;-65
2023/11/22 05:52:53;;;;;;;68.88;26.55;;;179.70;2252.80;;;;;;5051139;28;20365;-66
2023/11/22 05:55:18;;;;;;;66.10;26.88;;;179.70;2252.80;;;;;;5053370;28;20099;-65
2023/11/22 05:57:45;;;;;;;65.47;25.55;;;179.60;2252.80;;;;;;5040688;28;20064;-63
2023/11/22 06:00:14;;;;;;;66.35;25.52;;;179.60;2252.80;;;;;;5044017;28;20467;-66
2023/11/22 06:02:39;;;;;;;68.95;26.10;;;179.70;2252.80;;;;;;5052805;28;20100;-65
2023/11/22 06:05:09;;;;;;;68.72;25.85;;;179.60;2252.80;;;;;;5052915;28;20129;-65
2023/11/22 06:07:35;;;;;;;68.53;25.70;;;179.70;2252.80;;;;;;5053530;28;20083;-64
2023/11/22 06:10:02;;;;;;;72.30;25.88;;;179.60;2252.80;;;;;;5052846;28;20029;-67
2023/11/22 06:12:28;;;;;;;66.05;24.52;;;179.70;2252.80;;;;;;5053300;28;20419;-66
2023/11/22 06:14:53;;;;;;;67.22;24.02;;;179.60;2252.80;;;;;;5042548;28;20075;-65
2023/11/22 06:17:19;;;;;;;68.60;25.15;;;179.60;2252.80;;;;;;5045340;28;20357;-65
2023/11/22 06:19:45;;;;;;;64.30;23.63;;;179.60;2252.80;;;;;;5051199;28;20021;-66
2023/11/22 06:22:10;;;;;;;61.20;22.23;;;179.60;2252.80;;;;;;5048159;28;20037;-69
2023/11/22 06:24:36;;;;;;;62.30;22.60;;;179.60;2252.80;;;;;;5053004;28;20817;-65
2023/11/22 06:27:03;;;;;;;58.45;21.02;;;179.60;2252.80;;;;;;5046599;28;20426;-66
2023/11/22 06:29:29;;;;;;;62.03;22.77;;;179.60;2252.80;;;;;;5049094;28;20029;-63
2023/11/22 06:31:55;;;;;;;66.28;22.45;;;179.60;2252.80;;;;;;5052741;28;20115;-66
2023/11/22 06:34:20;;;;;;;60.63;22.38;;;179.60;2252.80;;;;;;5052694;28;20029;-67
2023/11/22 06:36:50;;;;;;;67.22;22.38;;;179.70;2252.80;;;;;;5048315;28;20017;-65
2023/11/22 06:39:17;;;;;;;62.92;22.48;;;179.70;2252.80;;;;;;5044748;28;20058;-65
2023/11/22 06:41:43;;;;;;;65.53;23.23;;;179.70;2252.80;;;;;;5049289;28;20056;-65
2023/11/22 06:44:09;;;;;;;66.13;23.00;;;179.70;2252.80;;;;;;5048860;28;20057;-66
2023/11/22 06:46:35;;;;;;;67.97;24.00;;;179.70;2252.80;;;;;;5039974;28;20112;-66
2023/11/22 06:49:01;;;;;;;67.43;24.70;;;179.70;2252.80;;;;;;5048468;28;20424;-66
2023/11/22 06:51:26;;;;;;;66.05;23.70;;;179.70;2252.80;;;;;;5072328;28;20033;-65
2023/11/22 06:53:54;;;;;;;61.15;23.05;;;179.80;2252.80;;;;;;5064321;28;20072;-67
2023/11/22 06:56:22;;;;;;;65.60;23.65;;;179.80;2252.80;;;;;;5038228;28;20028;-65
2023/11/22 06:58:48;;;;;;;69.95;25.95;;;179.80;2252.80;;;;;;5054254;28;20029;-66
2023/11/22 07:01:15;;;;;;;64.25;21.85;;;179.90;2252.80;;;;;;5055969;28;20033;-65
2023/11/22 07:03:40;;;;;;;64.75;23.30;;;179.90;2252.80;;;;;;5056248;28;20024;-65
2023/11/22 07:06:07;;;;;;;61.65;21.83;;;179.90;2252.80;;;;;;5055257;28;20120;-65
2023/11/22 07:08:34;;;;;;;60.03;22.75;;;179.90;2252.80;;;;;;5056392;28;20036;-65
2023/11/22 07:11:00;;;;;;;54.72;20.90;;;179.90;2252.80;;;;;;5043603;28;20071;-66
2023/11/22 07:13:26;;;;;;;57.97;21.02;;;179.90;2252.80;;;;;;5042586;28;20523;-66
2023/11/22 07:15:54;;;;;;;57.90;22.55;;;180.00;2252.80;;;;;;5035739;28;20053;-66
2023/11/22 07:18:20;;;;;;;54.47;20.88;;;179.90;2252.80;;;;;;5035639;28;20025;-66
2023/11/22 07:20:48;;;;;;;56.20;21.17;;;179.90;2252.80;;;;;;5047765;28;20035;-65
2023/11/22 07:23:15;;;;;;;54.03;21.35;;;179.90;2252.80;;;;;;5055675;28;20024;-65
2023/11/22 07:25:41;;;;;;;54.17;21.60;;;180.00;2252.80;;;;;;5053195;28;20063;-66
2023/11/22 07:28:07;;;;;;;57.05;21.38;;;180.00;2252.80;;;;;;5054190;28;20029;-65
2023/11/22 07:30:33;;;;;;;50.95;20.33;;;180.10;2252.80;;;;;;5054993;28;20033;-65
2023/11/22 07:32:59;;;;;;;55.95;21.35;;;180.00;2252.80;;;;;;5053417;28;20017;-68
2023/11/22 07:35:25;;;;;;;49.78;20.08;;;180.00;2252.80;;;;;;5052511;28;20352;-66
2023/11/22 07:37:51;;;;;;;54.83;22.33;;;180.00;2252.80;;;;;;5054799;28;20063;-66
2023/11/22 07:40:19;;;;;;;57.60;22.02;;;180.00;2252.80;;;;;;5054797;28;20037;-66
2023/11/22 07:42:44;;;;;;;60.17;23.20;;;180.00;2252.80;;;;;;5053544;28;20024;-66
2023/11/22 07:45:13;;;;;;;51.28;20.15;;;180.00;2252.80;;;;;;5054730;28;20033;-67
2023/11/22 07:47:43;;;;;;;51.83;20.90;;;180.00;2252.80;;;;;;5053178;28;20075;-68
2023/11/22 07:50:11;;;;;;;54.53;21.90;;;180.00;2252.80;;;;;;5054306;28;20024;-65
2023/11/22 07:52:38;;;;;;;53.33;23.75;;;180.10;2252.80;;;;;;5053851;28;20025;-67
2023/11/22 07:55:07;;;;;;;47.83;19.00;;;180.10;2252.80;;;;;;5054138;28;20114;-66
2023/11/22 07:57:34;;;;;;;47.20;20.38;;;180.10;2252.80;;;;;;5054875;28;20060;-69
2023/11/22 08:00:00;;;;;;;52.60;22.42;;;180.10;2252.80;;;;;;5054424;28;20357;-65
2023/11/22 08:02:27;;;;;;;51.15;21.17;;;204.80;2252.80;;;;;;5054204;28;20032;-65
2023/11/22 08:04:52;;;;;;;45.72;20.60;;;204.90;2252.80;;;;;;5052625;28;20064;-66
2023/11/22 08:07:18;;;;;;;48.92;21.17;;;204.90;2252.80;;;;;;5035385;28;20022;-66
2023/11/22 08:09:44;;;;;;;43.05;18.23;;;205.00;2252.80;;;;;;5035776;28;20029;-65
2023/11/22 08:12:11;;;;;;;42.97;18.83;;;205.00;2252.80;;;;;;5036595;28;20475;-65
2023/11/22 08:14:40;;;;;;;42.95;18.60;;;205.00;2252.80;;;;;;5054978;28;20494;-66
2023/11/22 08:17:06;;;;;;;42.38;16.52;;;205.00;2252.80;;;;;;5055274;28;20025;-67
2023/11/22 08:19:32;;;;;;;45.58;18.42;;;205.00;2252.80;;;;;;5054653;28;20025;-67
2023/11/22 08:21:58;;;;;;;40.70;17.75;;;205.00;2252.80;;;;;;5054730;28;20491;-66
2023/11/22 08:24:26;;;;;;;42.50;18.70;;;205.10;2252.80;;;;;;5053272;28;20029;-66
2023/11/22 08:26:52;;;;;;;40.05;16.55;;;205.00;2252.80;;;;;;5053731;28;20399;-66
2023/11/22 08:29:18;;;;;;;38.78;17.20;;;205.10;2252.80;;;;;;5053209;28;20029;-66
2023/11/22 08:31:43;;;;;;;40.92;18.40;;;205.10;2252.80;;;;;;5054064;28;20028;-65
2023/11/22 08:34:11;;;;;;;39.00;17.77;;;205.00;2252.80;;;;;;5053572;28;20380;-67
2023/11/22 08:36:37;;;;;;;37.55;17.35;;;205.10;2252.80;;;;;;5054562;28;20045;-66
2023/11/22 08:39:04;;;;;;;42.42;18.00;;;205.00;2252.80;;;;;;5053063;28;20067;-66
2023/11/22 08:41:31;;;;;;;41.80;18.05;;;205.10;2252.80;;;;;;5053106;28;20429;-66
2023/11/22 08:43:57;;;;;;;42.45;18.45;;;205.10;2252.80;;;;;;5053144;28;20017;-66
2023/11/22 08:46:23;;;;;;;36.95;16.83;;;205.10;2252.80;;;;;;5053065;28;20036;-67
2023/11/22 08:48:52;;;;;;;39.35;17.88;;;205.10;2252.80;;;;;;5052673;28;20411;-65
2023/11/22 08:51:18;;;;;;;40.85;18.48;;;205.20;2252.80;;;;;;5051879;28;20029;-67
2023/11/22 08:53:44;;;;;;;36.63;16.83;;;205.20;2252.80;;;;;;5053057;28;20049;-66
2023/11/22 08:56:11;;;;;;;37.33;17.27;;;205.20;2252.80;;;;;;5053570;28;20095;-69
2023/11/22 08:58:38;;;;;;;38.15;17.08;;;205.20;2252.80;;;;;;5052857;28;20028;-68
2023/11/22 09:01:05;;;;;;;37.17;16.90;;;205.10;2252.80;;;;;;5052748;28;20449;-65
2023/11/22 09:03:31;;;;;;;38.90;16.17;;;205.10;2252.80;;;;;;5053216;28;20070;-72
2023/11/22 09:05:57;;;;;;;39.55;17.40;;;205.10;2252.80;;;;;;5048441;28;20032;-66
2023/11/22 09:08:26;;;;;;;37.83;16.10;;;205.10;2252.80;;;;;;5052083;28;20029;-65
2023/11/22 09:10:52;;;;;;;37.67;17.00;;;205.10;2252.80;;;;;;5052899;28;20090;-66
2023/11/22 09:13:19;;;;;;;37.83;15.85;;;205.20;2252.80;;;;;;5052985;28;20025;-66
2023/11/22 09:15:45;;;;;;;38.45;17.05;;;205.10;2252.80;;;;;;5048282;28;20017;-65
2023/11/22 09:18:14;;;;;;;36.83;16.50;;;205.10;2252.80;;;;;;5049596;28;20099;-72
2023/11/22 09:20:43;;;;;;;34.95;16.60;;;205.20;2252.80;;;;;;5051430;28;20025;-70
2023/11/22 09:23:14;;;;;;;39.97;18.15;;;205.20;2252.80;;;;;;5051507;28;20020;-67
2023/11/22 09:25:39;;;;;;;39.05;17.25;;;205.20;2252.80;;;;;;5051739;28;20036;-66
2023/11/22 09:28:07;;;;;;;37.63;17.65;;;205.20;2252.80;;;;;;5051436;28;20017;-66
2023/11/22 09:30:34;;;;;;;39.17;17.23;;;205.20;2252.80;;;;;;5052468;28;20025;-65
2023/11/22 09:33:04;;;;;;;37.17;17.45;;;205.20;2252.80;;;;;;5053277;28;20108;-66
2023/11/22 09:35:31;;;;;;;36.53;16.23;;;205.30;2252.80;;;;;;5053038;28;20029;-66
2023/11/22 09:38:00;;;;;;;38.00;16.80;;;205.20;2252.80;;;;;;5055453;28;20545;-65
2023/11/22 09:40:28;;;;;;;39.58;17.42;;;205.20;2252.80;;;;;;5053312;28;20032;-65
2023/11/22 09:42:55;;;;;;;36.78;16.00;;;205.10;2252.80;;;;;;5052851;28;20503;-65
2023/11/22 09:45:21;;;;;;;37.38;16.67;;;205.10;2252.80;;;;;;5054321;28;20040;-66
2023/11/22 09:47:47;;;;;;;41.38;17.80;;;205.20;2252.80;;;;;;5052966;28;20025;-65
2023/11/22 09:50:29;;;;;;;36.33;15.32;;;205.20;2252.80;;;;;;5056354;28;20036;-64
2023/11/22 09:53:00;;;;;;;35.50;15.15;;;205.20;2252.80;;;;;;5051790;28;20388;-66
2023/11/22 09:55:28;;;;;;;36.92;15.52;;;205.10;2252.80;;;;;;5051236;28;20052;-66
2023/11/22 09:57:58;;;;;;;33.10;15.10;;;205.10;2252.80;;;;;;5044680;28;20021;-66
2023/11/22 10:00:27;;;;;;;34.88;15.52;;;205.10;2252.80;;;;;;5052444;28;20440;-65
2023/11/22 10:02:53;;;;;;;35.40;14.93;;;205.10;2252.80;;;;;;5051282;28;20079;-67
2023/11/22 10:05:20;;;;;;;33.40;14.38;;;205.10;2252.80;;;;;;5052743;28;20094;-67
2023/11/22 10:07:50;;;;;;;33.15;17.23;;;205.10;2252.80;;;;;;5053299;28;20526;-65
2023/11/22 10:10:18;;;;;;;28.13;12.93;;;205.00;2252.80;;;;;;5052852;28;20406;-66
2023/11/22 10:12:48;;;;;;;35.05;16.30;;;205.00;2252.80;;;;;;5052578;28;20028;-64
2023/11/22 10:15:15;;;;;;;28.85;14.30;;;205.00;2252.80;;;;;;5063161;28;20036;-68
2023/11/22 10:17:55;;;;;;;29.73;14.65;;;205.00;2252.80;;;;;;5053136;28;20017;-65
2023/11/22 10:20:49;;;;;;;27.48;12.40;;;205.10;2252.80;;;;;;5055159;28;20029;-67
2023/11/22 10:23:17;;;;;;;28.60;13.18;;;205.00;2252.80;;;;;;5049222;28;20040;-65
2023/11/22 10:25:49;;;;;;;31.88;15.65;;;205.00;2252.80;;;;;;5052850;28;20044;-65
2023/11/22 10:28:19;;;;;;;26.10;13.40;;;205.00;2252.80;;;;;;5052065;28;20025;-66
2023/11/22 10:30:49;;;;;;;24.27;13.50;;;205.00;2252.80;;;;;;5053632;28;20395;-65
2023/11/22 10:33:16;;;;;;;26.23;13.85;;;205.00;2252.80;;;;;;5056799;28;20472;-64
2023/11/22 10:35:46;;;;;;;24.58;12.57;;;205.00;2252.80;;;;;;5047663;28;20033;-65
2023/11/22 10:38:16;;;;;;;26.20;12.75;;;204.90;2252.80;;;;;;5037090;28;20017;-72
2023/11/22 10:40:44;;;;;;;29.20;14.13;;;204.90;2252.80;;;;;;5036659;28;20068;-64
2023/11/22 10:43:11;;;;;;;27.48;13.80;;;204.90;2252.80;;;;;;5036887;28;20025;-65
2023/11/22 10:45:38;;;;;;;27.75;13.82;;;204.90;2252.80;;;;;;5036495;28;20060;-64
2023/11/22 10:48:05;;;;;;;26.92;13.68;;;204.90;2252.80;;;;;;5036380;28;20025;-65
2023/11/22 10:50:34;;;;;;;25.92;13.02;;;204.90;2252.80;;;;;;5036872;28;20033;-71
2023/11/22 10:53:03;;;;;;;27.55;14.30;;;204.90;2252.80;;;;;;5036254;28;20072;-65
2023/11/22 10:55:32;;;;;;;27.00;13.93;;;204.90;2252.80;;;;;;5037015;28;20049;-65
2023/11/22 10:58:02;;;;;;;27.48;14.55;;;204.80;2252.80;;;;;;5036932;28;20028;-65
2023/11/22 11:00:32;;;;;;;29.92;15.05;;;204.90;2252.80;;;;;;5036180;28;20040;-65
2023/11/22 11:03:10;;;;;;;25.67;13.15;;;204.90;2252.80;;;;;;5036236;28;20018;-66
2023/11/22 11:05:41;;;;;;;28.55;14.60;;;205.00;2252.80;;;;;;5044199;28;20040;-65
2023/11/22 11:08:16;;;;;;;31.02;16.67;;;205.00;2252.80;;;;;;5055549;28;20040;-66
2023/11/22 11:10:42;;;;;;;32.10;17.15;;;205.00;2252.80;;;;;;5056050;28;20017;-66
2023/11/22 11:13:13;;;;;;;29.58;15.55;;;205.00;2252.80;;;;;;5056008;28;20041;-70
2023/11/22 11:15:40;;;;;;;31.52;15.88;;;205.00;2252.80;;;;;;5056734;28;20029;-64
2023/11/22 11:18:16;;;;;;;29.70;15.55;;;205.10;2252.80;;;;;;5055733;28;20025;-65
2023/11/22 11:20:53;;;;;;;29.67;16.25;;;205.10;2252.80;;;;;;5056179;28;20025;-67
2023/11/22 11:23:31;;;;;;;29.77;15.60;;;205.10;2252.80;;;;;;5056435;28;20064;-66
2023/11/22 11:26:08;;;;;;;28.75;15.50;;;205.10;2252.80;;;;;;5055706;28;20616;-65
2023/11/22 11:28:44;;;;;;;33.67;16.33;;;205.20;2252.80;;;;;;5055498;28;20112;-64
2023/11/22 11:31:09;;;;;;;28.30;14.40;;;205.20;2252.80;;;;;;5040795;28;20029;-66
2023/11/22 11:33:55;;;;;;;30.92;14.60;;;205.20;2252.80;;;;;;5035477;28;20490;-65
2023/11/22 11:36:32;;;;;;;27.15;14.38;;;205.30;2252.80;;;;;;5036151;28;20025;-66
2023/11/22 11:39:01;;;;;;;26.75;14.23;;;205.30;2252.80;;;;;;5035817;28;20037;-65
2023/11/22 11:41:30;;;;;;;24.80;13.65;;;205.30;2252.80;;;;;;5035227;28;20027;-64
2023/11/22 11:44:00;;;;;;;27.10;14.00;;;205.40;2252.80;;;;;;5034792;28;20029;-64
2023/11/22 11:46:27;;;;;;;27.35;14.80;;;205.50;2252.80;;;;;;5048379;28;20037;-63
2023/11/22 11:48:54;;;;;;;29.90;16.05;;;205.60;2252.80;;;;;;5054170;28;20021;-65
2023/11/22 11:51:26;;;;;;;29.08;15.35;;;205.70;2252.80;;;;;;5054685;28;20083;-66
2023/11/22 11:53:54;;;;;;;27.10;14.85;;;205.70;2252.80;;;;;;5054565;28;20384;-65
2023/11/22 11:56:20;;;;;;;29.20;15.32;;;205.70;2252.80;;;;;;5054448;28;20047;-65
2023/11/22 11:58:52;;;;;;;30.25;16.60;;;230.40;2252.80;;;;;;5054666;28;20067;-70